Time;durP1;ratioP1;P1;durP2;ratioP2;P2;SDS_P1;SDS_P2;PMS_P1;PMS_P2;Temp;Humidity;BMP_temperature;BMP_pressure;BME280_temperature;BME280_humidity;BME280_pressure;Samples;Min_cycle;Max_cycle;Signal;HPM_P1;HPM_P2
2023/01/24 00:00:55;;;;;;;10.30;4.80;;;;;;;8.97;52.91;101055.75;7685877;32;38658;-83
2023/01/24 00:05:12;;;;;;;10.82;4.60;;;;;;;9.17;52.15;101054.66;7685856;32;37755;-83
2023/01/24 00:09:28;;;;;;;11.73;4.87;;;;;;;8.91;52.94;101056.66;7685964;32;39089;-83
2023/01/24 00:13:44;;;;;;;8.32;4.72;;;;;;;8.77;53.23;101060.63;7685861;32;39949;-82
2023/01/24 00:18:00;;;;;;;9.45;4.65;;;;;;;8.86;53.26;101056.53;7685826;32;38670;-82
2023/01/24 00:22:16;;;;;;;10.05;4.75;;;;;;;8.95;52.78;101051.59;7685788;32;37160;-83
2023/01/24 00:26:33;;;;;;;8.38;4.50;;;;;;;8.88;52.80;101056.31;7685708;32;39427;-83
2023/01/24 00:30:49;;;;;;;17.05;8.00;;;;;;;8.84;52.64;101062.19;7685628;32;40200;-83
2023/01/24 00:35:06;;;;;;;16.75;9.73;;;;;;;8.58;54.67;101063.38;7685289;32;37830;-83
2023/01/24 00:39:22;;;;;;;15.70;9.40;;;;;;;8.11;56.30;101078.50;7685516;32;37181;-84
2023/01/24 00:43:39;;;;;;;19.05;9.85;;;;;;;7.74;57.58;101073.78;7685749;32;39479;-82
2023/01/24 00:47:55;;;;;;;17.37;9.15;;;;;;;7.84;56.94;101082.25;7684961;32;40778;-83
2023/01/24 00:52:11;;;;;;;15.00;8.80;;;;;;;7.76;57.17;101081.72;7685440;32;38848;-83
2023/01/24 00:56:27;;;;;;;14.70;8.13;;;;;;;7.47;57.76;101081.31;7671256;32;37008;-83
2023/01/24 01:00:43;;;;;;;13.48;8.20;;;;;;;7.49;57.75;101090.91;7685285;32;39149;-82
2023/01/24 01:05:00;;;;;;;21.60;10.82;;;;;;;7.45;57.98;101092.38;7685092;32;40571;-83
2023/01/24 01:09:16;;;;;;;22.35;11.48;;;;;;;7.37;58.31;101089.94;7696022;32;38611;-78
2023/01/24 01:13:32;;;;;;;20.45;9.98;;;;;;;7.22;59.00;101097.53;7697914;32;38478;-79
2023/01/24 01:17:49;;;;;;;17.60;10.00;;;;;;;7.39;58.29;101098.69;7692324;32;39855;-83
2023/01/24 01:22:05;;;;;;;20.52;11.10;;;;;;;7.47;57.64;101094.87;7686694;32;39916;-81
2023/01/24 01:26:22;;;;;;;21.65;11.75;;;;;;;7.33;58.02;101105.00;7686130;32;37924;-82
2023/01/24 01:30:38;;;;;;;23.08;12.70;;;;;;;7.24;58.57;101106.28;7684962;32;37167;-82
2023/01/24 01:34:54;;;;;;;22.95;12.50;;;;;;;7.15;58.69;101114.66;7684755;32;39286;-82
2023/01/24 01:39:10;;;;;;;23.55;12.02;;;;;;;7.06;59.21;101115.97;7683504;32;40711;-81
2023/01/24 01:43:29;;;;;;;22.17;11.60;;;;;;;6.94;59.34;101120.41;7685266;32;37824;-84
2023/01/24 01:47:45;;;;;;;26.17;13.35;;;;;;;6.86;59.48;101126.91;7684867;32;36471;-82
2023/01/24 01:52:05;;;;;;;26.70;15.18;;;;;;;6.75;59.95;101127.56;7671170;32;40031;-82
2023/01/24 01:57:02;;;;;;;24.50;13.68;;;;;;;6.72;59.87;101142.37;7684542;32;39907;-82
2023/01/24 02:01:19;;;;;;;25.02;13.50;;;;;;;6.61;60.21;101131.38;7684507;32;38074;-83
2023/01/24 02:05:35;;;;;;;35.53;18.77;;;;;;;6.56;60.21;101140.16;7686419;32;38031;-83
2023/01/24 02:09:53;;;;;;;31.48;16.30;;;;;;;6.56;60.36;101132.84;7710687;32;39297;-83
2023/01/24 02:18:57;;;;;;;29.67;15.95;;;;;;;6.49;60.35;101144.75;7710854;32;38832;-82
2023/01/24 02:23:31;;;;;;;27.60;16.08;;;;;;;6.46;60.65;101148.69;7710852;32;37221;-83
2023/01/24 02:27:47;;;;;;;37.17;18.23;;;;;;;6.32;60.88;101147.88;7691761;32;39464;-83
2023/01/24 02:32:07;;;;;;;39.42;19.83;;;;;;;6.36;60.73;101143.72;7684000;32;39737;-82
2023/01/24 02:36:31;;;;;;;37.75;20.02;;;;;;;6.30;60.85;101143.75;7683912;32;37958;-82
2023/01/24 02:40:50;;;;;;;36.17;20.62;;;;;;;6.22;60.99;101144.78;7705263;32;37023;-82
2023/01/24 02:45:14;;;;;;;42.10;21.35;;;;;;;6.41;60.37;101151.22;7697187;32;39355;-83
2023/01/24 02:49:30;;;;;;;;;;;;;;;6.15;60.93;101157.50;7710656;32;39932;-84
2023/01/24 02:53:46;;;;;;;40.58;20.95;;;;;;;6.10;61.57;101154.56;7710442;32;38879;-83
2023/01/24 02:58:05;;;;;;;40.90;21.15;;;;;;;6.31;60.77;101140.81;7710180;32;38016;-83
2023/01/24 03:02:21;;;;;;;38.22;20.83;;;;;;;6.07;61.65;101157.69;7709987;32;40136;-84
2023/01/24 03:06:37;;;;;;;43.38;21.60;;;;;;;6.26;61.02;101153.31;7709646;32;39894;-83
2023/01/24 03:10:54;;;;;;;39.92;20.88;;;;;;;6.14;61.54;101155.81;7688310;32;38594;-82
2023/01/24 03:42:49;;;;;;;35.65;19.08;;;;;;;5.92;61.76;101177.66;7712774;32;39885;-82
2023/01/24 03:47:05;;;;;;;39.97;19.77;;;;;;;5.87;61.84;101180.16;7711383;32;38655;-82
2023/01/24 03:55:58;;;;;;;36.58;17.77;;;;;;;5.96;61.71;101181.63;7712840;32;39365;-82
2023/01/24 04:00:15;;;;;;;32.58;18.25;;;;;;;6.01;61.52;101183.72;7711275;32;39345;-84
2023/01/24 04:05:12;;;;;;;33.75;18.52;;;;;;;6.16;61.16;101186.25;7712345;32;39072;-84
2023/01/24 04:09:07;;;;;;;33.05;18.05;;;;;;;5.97;61.61;101183.31;7712407;32;37216;-84
2023/01/24 04:13:24;;;;;;;31.65;17.20;;;;;;;6.01;61.56;101179.16;7712008;32;40063;-85
2023/01/24 04:17:40;;;;;;;28.15;15.43;;;;;;;6.04;61.58;101175.19;7712417;32;39986;-84
2023/01/24 04:21:58;;;;;;;27.75;15.30;;;;;;;5.93;62.02;101182.03;7698510;32;38814;-84
2023/01/24 04:26:14;;;;;;;29.67;17.12;;;;;;;5.89;61.94;101180.78;7712346;32;37253;-84
2023/01/24 04:30:30;;;;;;;28.98;16.77;;;;;;;5.93;61.79;101186.59;7690800;32;40049;-84
2023/01/24 04:34:46;;;;;;;34.25;18.17;;;;;;;5.93;61.84;101184.75;7685525;32;40720;-84
2023/01/24 04:39:02;;;;;;;29.27;16.02;;;;;;;6.05;61.42;101186.84;7685415;32;38715;-82
2023/01/24 04:43:20;;;;;;;28.95;15.68;;;;;;;5.98;61.69;101189.56;7685461;32;38010;-83
2023/01/24 04:47:37;;;;;;;31.77;16.75;;;;;;;5.79;62.15;101200.09;7686175;32;40253;-83
2023/01/24 04:51:53;;;;;;;34.33;17.90;;;;;;;5.83;62.08;101195.16;7685367;32;40757;-83
2023/01/24 04:56:11;;;;;;;33.67;16.80;;;;;;;6.00;61.52;101198.28;7685186;32;38691;-83
2023/01/24 05:00:27;;;;;;;31.35;16.83;;;;;;;5.98;61.51;101201.22;7685379;32;36078;-82
2023/01/24 05:04:43;;;;;;;33.38;18.15;;;;;;;5.82;61.96;101196.19;7671536;32;40119;-82
2023/01/24 05:09:00;;;;;;;34.33;16.80;;;;;;;5.93;61.50;101197.44;7685216;32;39892;-83
2023/01/24 05:13:16;;;;;;;32.67;17.15;;;;;;;5.77;61.89;101204.91;7685044;32;38736;-84
2023/01/24 05:17:32;;;;;;;32.50;16.95;;;;;;;5.74;62.17;101213.41;7685957;32;37940;-82
2023/01/24 05:21:49;;;;;;;35.85;18.83;;;;;;;5.85;61.95;101212.00;7685133;32;40160;-83
2023/01/24 05:26:05;;;;;;;31.05;18.25;;;;;;;5.71;62.35;101215.72;7685021;32;40770;-82
2023/01/24 05:30:22;;;;;;;37.15;19.52;;;;;;;5.78;62.01;101217.41;7684956;32;38590;-83
2023/01/24 05:34:38;;;;;;;35.60;19.65;;;;;;;5.48;62.91;101227.72;7684864;32;38000;-82
2023/01/24 05:38:54;;;;;;;43.83;22.25;;;;;;;5.76;62.15;101229.47;7701444;32;39346;-83
2023/01/24 05:43:10;;;;;;;38.25;21.60;;;;;;;5.59;62.54;101235.25;7710575;32;41026;-82
2023/01/24 05:47:26;;;;;;;42.40;21.20;;;;;;;5.45;62.97;101239.78;7711359;32;38736;-82
2023/01/24 05:51:42;;;;;;;41.50;21.75;;;;;;;5.39;63.11;101251.41;7711373;32;37312;-83
2023/01/24 05:56:01;;;;;;;41.80;21.73;;;;;;;5.40;63.15;101249.56;7711657;32;39105;-83
2023/01/24 06:00:18;;;;;;;41.45;22.95;;;;;;;5.45;62.69;101256.03;7711177;32;40663;-82
2023/01/24 06:04:34;;;;;;;45.20;23.38;;;;;;;5.36;62.89;101245.56;7710960;32;38773;-82
2023/01/24 06:08:51;;;;;;;42.80;23.38;;;;;;;5.35;62.74;101257.44;7695572;32;37234;-83
2023/01/24 06:13:07;;;;;;;42.72;23.30;;;;;;;5.17;63.04;101261.50;7684396;32;39161;-83
2023/01/24 06:17:23;;;;;;;42.28;23.48;;;;;;;5.33;62.60;101262.19;7684203;32;40862;-82
2023/01/24 06:21:46;;;;;;;41.05;23.20;;;;;;;5.23;62.84;101268.00;7684127;32;39235;-82
2023/01/24 06:26:03;;;;;;;44.78;23.15;;;;;;;5.19;62.88;101264.84;7689778;32;37947;-82
2023/01/24 06:30:20;;;;;;;42.35;22.48;;;;;;;5.17;62.93;101271.47;7710742;32;40051;-82
2023/01/24 06:35:27;;;;;;;35.92;20.77;;;;;;;5.14;63.13;101275.44;7709964;32;40897;-82
2023/01/24 06:39:51;;;;;;;43.90;23.02;;;;;;;5.20;63.26;101276.50;7631852;32;37610;-82
2023/01/24 06:44:10;;;;;;;43.33;22.02;;;;;;;5.10;63.44;101284.94;7657522;32;37251;-84
2023/01/24 06:48:26;;;;;;;40.60;22.55;;;;;;;5.12;63.44;101292.88;7644198;32;39024;-80
2023/01/24 06:52:46;;;;;;;46.37;23.20;;;;;;;4.99;63.93;101305.28;7657388;32;40023;-82
2023/01/24 06:57:03;;;;;;;45.67;23.20;;;;;;;5.26;63.19;101300.88;7656259;32;37860;-82
2023/01/24 07:01:19;;;;;;;42.40;23.58;;;;;;;5.17;63.52;101295.81;7656922;32;38402;-83
2023/01/24 07:05:38;;;;;;;44.45;22.87;;;;;;;5.01;64.24;101303.19;7662520;32;38654;-83
2023/01/24 07:09:55;;;;;;;45.72;23.08;;;;;;;5.25;63.64;101301.87;7683167;32;40905;-84
2023/01/24 07:14:11;;;;;;;43.05;22.70;;;;;;;5.25;63.67;101309.19;7683023;32;37896;-83
2023/01/24 07:18:27;;;;;;;44.72;24.60;;;;;;;5.35;63.42;101314.22;7683070;32;37207;-81
2023/01/24 07:22:44;;;;;;;57.70;22.50;;;;;;;5.36;63.64;101315.88;7683043;32;39133;-83
2023/01/24 07:27:00;;;;;;;45.72;22.27;;;;;;;5.46;63.43;101321.75;7683379;32;39901;-84
2023/01/24 07:31:17;;;;;;;40.47;21.65;;;;;;;5.39;63.88;101324.44;7685566;32;38629;-84
2023/01/24 07:35:33;;;;;;;43.30;21.35;;;;;;;5.47;63.65;101334.25;7689669;32;37379;-83
2023/01/24 07:39:49;;;;;;;43.17;22.15;;;;;;;5.40;64.09;101331.53;7682489;32;39929;-83
2023/01/24 07:44:06;;;;;;;40.20;21.60;;;;;;;5.56;63.57;101322.22;7682345;32;39811;-84
2023/01/24 07:48:22;;;;;;;44.92;24.20;;;;;;;5.89;62.48;101321.53;7682527;32;38659;-81
2023/01/24 07:52:38;;;;;;;41.83;22.80;;;;;;;5.75;62.76;101319.81;7682248;32;37253;-83
2023/01/24 07:56:56;;;;;;;39.92;22.67;;;;;;;5.77;62.63;101323.16;7691560;32;39468;-78
2023/01/24 08:01:20;;;;;;;44.72;22.73;;;;;;;5.88;62.49;101330.69;7695390;32;40471;-79
2023/01/24 08:05:39;;;;;;;43.40;22.23;;;;;;;5.89;62.91;101331.53;7698860;32;39210;-82
2023/01/24 08:09:56;;;;;;;44.83;23.17;;;;;;;5.77;63.10;101342.91;7675150;32;37489;-82
2023/01/24 08:14:12;;;;;;;40.17;21.42;;;;;;;5.84;63.12;101338.37;7688361;32;40229;-83
2023/01/24 08:18:28;;;;;;;42.00;23.52;;;;;;;5.96;62.72;101343.25;7686579;32;40807;-83
2023/01/24 08:22:44;;;;;;;70.47;32.00;;;;;;;5.86;63.19;101349.00;7685434;32;37971;-82
2023/01/24 08:27:13;;;;;;;59.28;28.95;;;;;;;6.19;63.56;101351.84;7707894;32;37336;-83
2023/01/24 08:31:29;;;;;;;50.35;25.40;;;;;;;6.27;62.78;101347.28;7712248;32;39332;-83
2023/01/24 08:35:48;;;;;;;46.47;24.42;;;;;;;6.37;62.89;101345.00;7712125;32;40423;-83
2023/01/24 08:40:06;;;;;;;36.83;21.08;;;;;;;6.88;62.93;101354.41;7711911;32;38764;-85
2023/01/24 08:44:22;;;;;;;43.03;21.80;;;;;;;6.99;61.31;101361.09;7712315;32;36713;-83
2023/01/24 08:48:40;;;;;;;44.33;23.58;;;;;;;7.17;60.28;101360.44;7708958;32;38446;-84
2023/01/24 08:52:57;;;;;;;42.65;23.38;;;;;;;7.37;59.54;101366.69;7703867;32;41034;-85
2023/01/24 08:57:13;;;;;;;42.97;23.98;;;;;;;7.27;60.30;101360.84;7683578;32;38708;-85
2023/01/24 09:01:31;;;;;;;44.35;22.35;;;;;;;7.68;60.09;101368.69;7685116;32;37229;-84
2023/01/24 09:05:54;;;;;;;40.65;24.27;;;;;;;7.81;58.60;101370.53;7709405;32;39300;-84
2023/01/24 09:10:11;;;;;;;42.65;23.50;;;;;;;7.78;59.72;101373.66;7711699;32;39977;-84
2023/01/24 09:14:27;;;;;;;37.30;21.70;;;;;;;7.69;59.47;101374.94;7712982;32;37905;-84
2023/01/24 09:18:43;;;;;;;38.17;22.08;;;;;;;7.89;59.50;101375.69;7706377;32;37953;-85
2023/01/24 09:22:59;;;;;;;40.08;22.15;;;;;;;7.88;59.87;101379.47;7705155;32;40140;-85
2023/01/24 09:27:15;;;;;;;39.35;20.33;;;;;;;8.28;58.01;101383.88;7697106;32;39745;-83
2023/01/24 09:31:32;;;;;;;37.58;20.73;;;;;;;7.98;58.72;101380.88;7684585;32;38584;-83
2023/01/24 09:35:57;;;;;;;41.33;21.33;;;;;;;8.23;57.96;101381.81;7692927;32;37941;-83
2023/01/24 09:40:25;;;;;;;36.80;20.12;;;;;;;8.07;58.76;101385.87;7697959;32;39428;-85
2023/01/24 09:44:56;;;;;;;37.92;20.88;;;;;;;8.22;59.02;101369.25;7705954;32;40069;-81
2023/01/24 09:49:38;;;;;;;36.00;19.33;;;;;;;8.58;58.50;101367.81;7680752;32;37951;-82
2023/01/24 09:53:59;;;;;;;35.75;19.98;;;;;;;8.90;57.47;101358.78;7681525;32;38183;-83
2023/01/24 09:58:35;;;;;;;39.83;21.33;;;;;;;8.82;56.99;101363.47;7697764;32;39321;-80
2023/01/24 10:02:54;;;;;;;39.45;22.48;;;;;;;9.16;56.15;101347.69;7711142;32;39742;-86
2023/01/24 10:07:45;;;;;;;38.47;20.00;;;;;;;9.15;56.56;101350.62;7697400;32;38161;-83
2023/01/24 10:12:19;;;;;;;35.13;20.77;;;;;;;9.26;56.06;101352.63;7701031;32;38048;-83
2023/01/24 10:16:52;;;;;;;45.83;25.40;;;;;;;9.35;56.14;101348.53;7711106;32;39158;-83
2023/01/24 10:21:33;;;;;;;42.58;25.67;;;;;;;9.08;55.39;101338.97;7710843;32;41042;-84
2023/01/24 10:25:56;;;;;;;39.15;22.83;;;;;;;9.11;55.73;101338.53;7695968;32;38715;-84
2023/01/24 10:30:21;;;;;;;39.08;22.65;;;;;;;9.24;55.98;101335.66;7669811;32;38051;-84
2023/01/24 10:34:43;;;;;;;40.40;23.48;;;;;;;9.86;54.04;101326.56;7682961;32;40144;-83
2023/01/24 10:38:59;;;;;;;42.83;24.95;;;;;;;10.43;52.89;101316.13;7667662;32;40881;-84
2023/01/24 10:43:16;;;;;;;44.97;23.35;;;;;;;9.95;53.44;101317.00;7683057;32;37919;-83
2023/01/24 10:47:36;;;;;;;41.47;24.12;;;;;;;10.67;52.66;101308.00;7681455;32;37909;-84
2023/01/24 10:52:12;;;;;;;43.10;25.35;;;;;;;10.68;52.03;101317.88;7682825;32;40146;-84
2023/01/24 10:56:30;;;;;;;43.53;26.08;;;;;;;10.68;51.48;101298.78;7683270;32;39938;-84
2023/01/24 11:00:54;;;;;;;50.75;25.67;;;;;;;9.92;52.54;101295.72;7683041;32;37694;-83
2023/01/24 11:05:13;;;;;;;44.47;25.02;;;;;;;10.03;52.93;101291.34;7681672;32;38093;-83
2023/01/24 11:09:34;;;;;;;39.80;24.30;;;;;;;10.24;53.03;101287.28;7681342;32;39703;-85
2023/01/24 11:13:55;;;;;;;31.92;19.20;;;;;;;10.60;52.74;101274.56;7681954;32;39514;-84
2023/01/24 11:18:27;;;;;;;42.17;20.65;;;;;;;10.20;51.52;101273.28;7681817;32;37964;-84
2023/01/24 11:22:49;;;;;;;31.77;18.15;;;;;;;11.04;50.62;101264.16;7681010;32;38099;-83
2023/01/24 11:27:14;;;;;;;32.13;16.80;;;;;;;11.25;49.23;101255.31;7682242;32;39307;-83
2023/01/24 11:31:39;;;;;;;30.50;17.60;;;;;;;10.71;49.76;101252.75;7682425;32;40174;-84
2023/01/24 11:36:07;;;;;;;31.55;17.40;;;;;;;10.76;49.93;101241.13;7680480;32;38801;-83
2023/01/24 11:40:25;;;;;;;26.15;15.32;;;;;;;11.16;49.58;101240.37;7679861;32;37593;-84
2023/01/24 11:45:14;;;;;;;29.35;15.23;;;;;;;11.34;48.77;101230.37;7684558;32;39941;-86
2023/01/24 11:49:54;;;;;;;27.08;15.35;;;;;;;11.76;47.72;101222.75;7682248;32;39841;-84
2023/01/24 11:54:15;;;;;;;27.40;14.10;;;;;;;11.79;47.38;101218.69;7682794;32;38718;-84
2023/01/24 11:58:44;;;;;;;28.70;14.75;;;;;;;11.27;48.39;101223.13;7683128;32;37936;-83
2023/01/24 12:03:18;;;;;;;25.23;13.65;;;;;;;11.48;47.82;101215.34;7684723;32;39425;-82
2023/01/24 12:08:01;;;;;;;26.27;14.32;;;;;;;11.24;48.71;101218.16;7685616;32;40651;-83
2023/01/24 12:12:32;;;;;;;20.30;12.30;;;;;;;11.72;47.80;101209.81;7686100;32;38040;-83
2023/01/24 12:17:12;;;;;;;28.45;13.00;;;;;;;11.27;49.20;101220.41;7685823;32;37297;-83
2023/01/24 12:21:41;;;;;;;24.17;13.10;;;;;;;10.86;49.59;101224.16;7674418;32;39310;-83
2023/01/24 12:26:02;;;;;;;24.12;13.02;;;;;;;11.06;49.01;101216.44;7685669;32;40771;-83
2023/01/24 12:30:37;;;;;;;23.52;13.62;;;;;;;11.04;49.46;101223.22;7685762;32;38089;-84
2023/01/24 12:35:21;;;;;;;25.73;14.48;;;;;;;11.05;50.75;101222.12;7685686;32;37019;-83
2023/01/24 12:40:09;;;;;;;24.00;13.75;;;;;;;11.25;50.08;101222.56;7674582;32;39359;-83
2023/01/24 12:44:30;;;;;;;23.83;13.32;;;;;;;11.76;49.57;101220.00;7685515;32;40000;-83
2023/01/24 12:49:06;;;;;;;25.85;14.20;;;;;;;11.98;48.71;101211.94;7685311;32;38116;-84
2023/01/24 12:53:57;;;;;;;25.80;15.27;;;;;;;12.08;48.68;101210.47;7671981;32;37290;-83
2023/01/24 12:58:23;;;;;;;21.65;12.13;;;;;;;12.10;48.97;101213.78;7685491;32;39319;-84
2023/01/24 13:02:49;;;;;;;21.77;12.18;;;;;;;12.83;47.98;101201.00;7685347;32;39941;-84
2023/01/24 13:07:16;;;;;;;20.60;11.43;;;;;;;13.18;45.16;101198.94;7671745;32;37768;-84
2023/01/24 13:11:33;;;;;;;21.98;11.48;;;;;;;12.58;45.14;101201.44;7672071;32;37902;-83
2023/01/24 13:16:06;;;;;;;20.80;11.55;;;;;;;13.15;44.86;101203.03;7685424;32;40015;-84
2023/01/24 13:20:40;;;;;;;19.48;11.07;;;;;;;14.12;44.32;101192.28;7685127;32;40829;-83
2023/01/24 13:25:05;;;;;;;18.60;11.70;;;;;;;14.75;43.01;101191.69;7672547;32;38089;-84
2023/01/24 13:29:43;;;;;;;18.95;10.93;;;;;;;15.48;41.15;101188.97;7685135;32;37112;-84
2023/01/24 13:34:09;;;;;;;23.65;12.82;;;;;;;16.06;39.27;101188.81;7685068;32;40611;-84
2023/01/24 13:38:34;;;;;;;20.75;12.60;;;;;;;16.10;39.07;101203.66;7685030;32;40590;-85
2023/01/24 13:42:51;;;;;;;24.52;12.98;;;;;;;15.93;39.93;101205.88;7684821;32;38287;-85
2023/01/24 13:47:10;;;;;;;23.58;13.10;;;;;;;16.58;39.31;101197.88;7671333;32;37937;-85
2023/01/24 13:51:34;;;;;;;22.87;13.65;;;;;;;17.16;38.25;101197.47;7684927;32;39852;-86
2023/01/24 13:56:01;;;;;;;23.95;13.82;;;;;;;16.66;38.74;101199.22;7684786;32;39857;-85
2023/01/24 14:00:21;;;;;;;22.75;14.00;;;;;;;16.47;39.15;101204.47;7670857;32;38957;-84
2023/01/24 14:04:42;;;;;;;28.00;13.77;;;;;;;16.99;37.69;101197.81;7684014;32;37965;-85
2023/01/24 14:09:13;;;;;;;24.63;13.98;;;;;;;17.60;37.27;101196.69;7671192;32;39178;-87
2023/01/24 14:13:54;;;;;;;24.08;13.00;;;;;;;17.92;35.91;101192.66;7671925;32;39707;-85
2023/01/24 14:18:50;;;;;;;23.57;13.43;;;;;;;20.03;31.79;101191.06;7684349;32;37957;-86
2023/01/24 14:23:24;;;;;;;20.08;13.27;;;;;;;23.09;26.76;101165.41;7645597;32;37313;-85
2023/01/24 14:28:26;;;;;;;25.83;14.23;;;;;;;24.07;25.20;101171.56;7671452;32;39550;-85
2023/01/24 14:32:44;;;;;;;25.02;14.70;;;;;;;23.62;25.22;101173.50;7660629;32;40608;-84
2023/01/24 14:37:11;;;;;;;23.75;15.13;;;;;;;24.68;24.38;101175.06;7683704;32;38048;-86
2023/01/24 14:41:29;;;;;;;25.08;14.82;;;;;;;25.08;23.70;101180.25;7671255;32;36905;-85
2023/01/24 14:45:47;;;;;;;26.15;15.30;;;;;;;25.35;22.80;101180.94;7670203;32;39288;-84
2023/01/24 14:50:18;;;;;;;22.67;15.27;;;;;;;23.70;24.59;101190.53;7667804;32;40673;-85
2023/01/24 14:54:35;;;;;;;25.23;16.02;;;;;;;21.89;27.56;101191.88;7683151;32;38862;-83
2023/01/24 14:58:51;;;;;;;22.75;14.65;;;;;;;19.32;31.80;101204.81;7668827;32;37926;-84
2023/01/24 15:03:15;;;;;;;28.12;16.45;;;;;;;17.21;35.89;101214.00;7682926;32;39149;-83
2023/01/24 15:07:31;;;;;;;28.08;17.23;;;;;;;16.30;37.97;101224.06;7669146;32;39980;-84
2023/01/24 15:11:50;;;;;;;25.67;16.80;;;;;;;15.23;40.17;101236.44;7683335;32;38361;-84
2023/01/24 15:16:15;;;;;;;28.73;17.52;;;;;;;14.42;42.13;101237.53;7689804;32;37217;-78
2023/01/24 15:20:33;;;;;;;26.75;17.90;;;;;;;13.81;43.72;101238.59;7699028;32;38549;-80
2023/01/24 15:24:53;;;;;;;29.30;18.95;;;;;;;13.35;44.77;101249.06;7696837;32;39912;-77
2023/01/24 15:29:40;;;;;;;32.63;18.67;;;;;;;12.79;46.20;101251.81;7693147;32;39200;-83
2023/01/24 15:34:00;;;;;;;31.35;18.70;;;;;;;12.06;47.87;101270.03;7689591;32;37341;-82
2023/01/24 15:38:17;;;;;;;33.45;19.60;;;;;;;11.71;48.70;101273.69;7689143;32;38755;-82
2023/01/24 15:52:06;;;;;;;38.13;20.65;;;;;;;10.32;52.59;101292.44;7685614;32;37153;-84
2023/01/24 15:56:24;;;;;;;37.85;22.67;;;;;;;10.34;52.49;101288.38;7685932;32;39452;-85
2023/01/24 16:00:49;;;;;;;38.30;22.67;;;;;;;10.10;53.42;101295.63;7685342;32;42258;-85
2023/01/24 16:05:22;;;;;;;39.92;22.48;;;;;;;9.88;54.15;101295.34;7685674;32;38750;-85
2023/01/24 16:09:38;;;;;;;36.73;22.47;;;;;;;9.78;53.46;101301.31;7684272;32;36969;-83
2023/01/24 16:13:56;;;;;;;39.03;22.25;;;;;;;9.46;55.42;101297.94;7685645;32;39613;-83
2023/01/24 16:18:12;;;;;;;36.08;21.45;;;;;;;9.24;55.84;101307.63;7685635;32;39970;-83
2023/01/24 16:22:31;;;;;;;36.67;22.52;;;;;;;8.90;56.60;101304.41;7685167;32;38027;-84
2023/01/24 16:26:48;;;;;;;35.92;21.20;;;;;;;8.85;56.46;101307.81;7685496;32;37120;-83
2023/01/24 16:31:05;;;;;;;38.63;22.30;;;;;;;8.87;55.90;101294.81;7685093;32;40072;-83
2023/01/24 16:35:21;;;;;;;41.05;22.80;;;;;;;8.87;55.48;101302.97;7685301;32;39926;-83
2023/01/24 16:39:37;;;;;;;35.33;20.90;;;;;;;8.48;56.77;101302.25;7684106;32;39177;-82
2023/01/24 16:43:53;;;;;;;38.58;21.27;;;;;;;8.53;56.71;101304.31;7685525;32;37066;-82
2023/01/24 16:48:10;;;;;;;39.60;22.50;;;;;;;8.27;57.66;101317.00;7685586;32;39038;-83
2023/01/24 16:52:26;;;;;;;41.37;22.42;;;;;;;8.31;58.50;101320.09;7685498;32;40548;-84
2023/01/24 16:56:45;;;;;;;41.78;21.40;;;;;;;8.25;58.85;101316.38;7685454;32;38886;-84
2023/01/24 17:01:06;;;;;;;47.85;23.38;;;;;;;8.15;58.39;101326.91;7685343;32;38108;-84
2023/01/24 17:05:22;;;;;;;43.08;23.98;;;;;;;7.73;59.67;101321.87;7685270;32;39834;-84
2023/01/24 17:09:38;;;;;;;39.33;21.75;;;;;;;8.15;58.32;101330.44;7685253;32;39972;-83
2023/01/24 17:13:54;;;;;;;47.33;23.83;;;;;;;7.83;59.32;101324.97;7685291;32;38839;-83
2023/01/24 17:18:10;;;;;;;42.45;22.92;;;;;;;7.75;59.07;101330.66;7685141;32;38072;-83
2023/01/24 17:22:28;;;;;;;43.30;22.85;;;;;;;7.71;59.14;101330.25;7685194;32;39448;-86
2023/01/24 17:26:48;;;;;;;39.58;23.50;;;;;;;7.77;59.45;101333.97;7683972;32;40935;-83
2023/01/24 17:31:15;;;;;;;40.80;22.30;;;;;;;7.83;59.10;101327.69;7684683;32;37788;-83
2023/01/24 17:35:32;;;;;;;36.55;22.33;;;;;;;7.54;59.24;101329.06;7684618;32;37831;-84
2023/01/24 17:39:51;;;;;;;38.95;21.05;;;;;;;7.57;59.15;101338.66;7684185;32;39778;-83
2023/01/24 17:44:07;;;;;;;40.45;20.80;;;;;;;7.55;58.83;101335.31;7684523;32;39910;-83
2023/01/24 17:48:24;;;;;;;40.85;21.15;;;;;;;7.43;58.73;101337.84;7684642;32;38748;-84
2023/01/24 17:52:41;;;;;;;39.38;21.40;;;;;;;7.01;61.04;101346.28;7684441;32;37909;-84
2023/01/24 17:56:57;;;;;;;36.80;20.02;;;;;;;7.26;59.81;101340.19;7684261;32;39503;-84
2023/01/24 18:01:14;;;;;;;41.08;21.05;;;;;;;7.32;59.62;101344.78;7684475;32;40612;-85
2023/01/24 18:05:31;;;;;;;41.00;21.55;;;;;;;7.06;59.96;101349.19;7684179;32;38770;-85
2023/01/24 18:09:48;;;;;;;37.78;19.92;;;;;;;7.14;59.40;101342.72;7684334;32;36983;-84
2023/01/24 18:14:06;;;;;;;35.92;19.15;;;;;;;6.99;59.21;101347.53;7684069;32;39291;-84
2023/01/24 18:18:22;;;;;;;33.28;18.70;;;;;;;6.85;59.35;101342.13;7682874;32;40514;-84
2023/01/24 18:22:45;;;;;;;34.75;19.55;;;;;;;6.91;58.94;101341.28;7682554;32;37655;-82
2023/01/24 18:27:04;;;;;;;35.25;19.70;;;;;;;6.99;58.00;101347.53;7680879;32;38066;-83
2023/01/24 18:31:20;;;;;;;32.53;19.08;;;;;;;6.63;58.91;101337.97;7682469;32;40032;-83
2023/01/24 18:35:40;;;;;;;38.72;19.08;;;;;;;6.51;59.21;101340.44;7682604;32;39848;-82
2023/01/24 18:39:57;;;;;;;37.58;20.10;;;;;;;6.74;58.46;101340.03;7682958;32;38816;-84
2023/01/24 18:44:15;;;;;;;35.30;19.52;;;;;;;6.78;58.45;101344.00;7683167;32;37155;-84
2023/01/24 18:48:32;;;;;;;35.42;20.45;;;;;;;6.49;59.83;101346.06;7681210;32;40907;-83
2023/01/24 18:52:53;;;;;;;38.95;20.17;;;;;;;6.74;59.27;101351.72;7679799;32;40057;-84
2023/01/24 18:57:09;;;;;;;37.90;20.33;;;;;;;6.82;59.21;101349.84;7679389;32;38021;-84
2023/01/24 19:01:26;;;;;;;39.47;20.40;;;;;;;6.73;58.89;101349.22;7680884;32;36925;-83
2023/01/24 19:05:44;;;;;;;33.63;20.77;;;;;;;6.29;60.18;101339.78;7679606;32;39461;-83
2023/01/24 19:10:01;;;;;;;38.78;20.40;;;;;;;6.27;59.69;101345.41;7680672;32;40181;-82
2023/01/24 19:14:19;;;;;;;39.25;20.55;;;;;;;6.42;59.01;101341.69;7680595;32;38548;-83
2023/01/24 19:18:36;;;;;;;38.30;19.80;;;;;;;6.29;59.39;101345.19;7680872;32;37162;-83
2023/01/24 19:22:54;;;;;;;39.88;20.20;;;;;;;6.10;59.84;101352.22;7680425;32;41715;-82
2023/01/24 19:27:11;;;;;;;34.17;18.48;;;;;;;6.18;59.76;101352.06;7678350;32;40005;-85
2023/01/24 19:31:28;;;;;;;40.63;21.35;;;;;;;5.99;59.84;101346.38;7680234;32;37978;-83
2023/01/24 19:35:44;;;;;;;35.78;20.15;;;;;;;5.84;60.26;101360.00;7680052;32;37339;-83
2023/01/24 19:40:02;;;;;;;38.75;21.62;;;;;;;5.99;60.09;101354.50;7680082;32;40106;-85
2023/01/24 19:44:19;;;;;;;36.65;20.05;;;;;;;5.75;60.85;101363.94;7679596;32;39901;-83
2023/01/24 19:48:36;;;;;;;37.00;19.60;;;;;;;5.77;60.82;101359.16;7679533;32;37925;-85
2023/01/24 19:52:52;;;;;;;36.08;19.10;;;;;;;5.78;60.60;101346.47;7679460;32;37289;-83
2023/01/24 19:57:09;;;;;;;32.25;17.15;;;;;;;5.69;60.82;101356.66;7677420;32;40093;-83
2023/01/24 20:01:26;;;;;;;29.87;16.62;;;;;;;5.86;60.10;101359.81;7679950;32;39596;-83
2023/01/24 20:05:43;;;;;;;32.90;17.33;;;;;;;5.85;60.28;101358.16;7695738;32;38010;-85
2023/01/24 20:09:59;;;;;;;28.67;15.80;;;;;;;5.53;60.98;101360.50;7712365;32;37202;-83
2023/01/24 20:14:15;;;;;;;34.38;17.92;;;;;;;5.29;61.39;101367.22;7712232;32;40195;-81
2023/01/24 20:18:32;;;;;;;35.85;18.67;;;;;;;5.23;61.09;101376.16;7701016;32;41005;-82
2023/01/24 20:22:53;;;;;;;32.70;18.02;;;;;;;5.42;60.21;101369.19;7702064;32;37918;-81
2023/01/24 20:27:09;;;;;;;30.12;16.60;;;;;;;5.36;60.32;101378.09;7712347;32;38117;-83
2023/01/24 20:31:26;;;;;;;37.03;17.65;;;;;;;5.20;60.56;101377.34;7697831;32;40153;-83
2023/01/24 20:35:43;;;;;;;35.67;18.52;;;;;;;5.20;60.49;101374.66;7685433;32;40853;-85
2023/01/24 20:39:59;;;;;;;34.95;17.52;;;;;;;5.21;61.08;101368.22;7703662;32;38901;-85
2023/01/24 20:44:15;;;;;;;30.12;17.23;;;;;;;5.19;61.00;101380.25;7684106;32;37278;-85